sensor_id;sensor_type;location;lat;lon;timestamp;temperature;humidity
19941;DHT22;10132;50.864;5.176;2022-09-12T00:00:26;14.20;99.90
19941;DHT22;10132;50.864;5.176;2022-09-12T00:02:28;13.90;99.90
19941;DHT22;10132;50.864;5.176;2022-09-12T00:04:30;13.70;99.90
19941;DHT22;10132;50.864;5.176;2022-09-12T00:06:33;13.60;99.90
19941;DHT22;10132;50.864;5.176;2022-09-12T00:08:36;13.60;99.90
19941;DHT22;10132;50.864;5.176;2022-09-12T00:10:40;13.40;99.90
19941;DHT22;10132;50.864;5.176;2022-09-12T00:12:43;13.30;99.90
19941;DHT22;10132;50.864;5.176;2022-09-12T00:14:44;13.30;99.90
19941;DHT22;10132;50.864;5.176;2022-09-12T00:16:46;13.40;99.90
19941;DHT22;10132;50.864;5.176;2022-09-12T00:18:49;13.60;99.90
19941;DHT22;10132;50.864;5.176;2022-09-12T00:20:52;13.70;99.90
19941;DHT22;10132;50.864;5.176;2022-09-12T00:22:54;13.50;99.90
19941;DHT22;10132;50.864;5.176;2022-09-12T00:24:56;13.50;99.90
19941;DHT22;10132;50.864;5.176;2022-09-12T00:26:59;13.60;99.90
19941;DHT22;10132;50.864;5.176;2022-09-12T00:29:01;13.50;99.90
19941;DHT22;10132;50.864;5.176;2022-09-12T00:31:03;13.30;99.90
19941;DHT22;10132;50.864;5.176;2022-09-12T00:33:06;13.30;99.90
19941;DHT22;10132;50.864;5.176;2022-09-12T00:35:08;13.30;99.90
19941;DHT22;10132;50.864;5.176;2022-09-12T00:37:09;13.40;99.90
19941;DHT22;10132;50.864;5.176;2022-09-12T00:39:14;13.60;99.90
19941;DHT22;10132;50.864;5.176;2022-09-12T00:41:18;13.70;99.90
19941;DHT22;10132;50.864;5.176;2022-09-12T00:43:36;13.70;99.90
19941;DHT22;10132;50.864;5.176;2022-09-12T00:45:38;13.70;99.90
19941;DHT22;10132;50.864;5.176;2022-09-12T00:47:42;13.60;99.90
19941;DHT22;10132;50.864;5.176;2022-09-12T00:49:47;13.60;99.90
19941;DHT22;10132;50.864;5.176;2022-09-12T00:51:52;13.50;99.90
19941;DHT22;10132;50.864;5.176;2022-09-12T00:53:56;13.50;99.90
19941;DHT22;10132;50.864;5.176;2022-09-12T00:55:59;13.50;99.90
19941;DHT22;10132;50.864;5.176;2022-09-12T00:58:04;13.40;99.90
19941;DHT22;10132;50.864;5.176;2022-09-12T01:00:10;13.30;99.90
19941;DHT22;10132;50.864;5.176;2022-09-12T01:02:15;13.40;99.90
19941;DHT22;10132;50.864;5.176;2022-09-12T01:04:20;13.50;99.90
19941;DHT22;10132;50.864;5.176;2022-09-12T01:06:26;13.70;99.90
19941;DHT22;10132;50.864;5.176;2022-09-12T01:08:28;13.70;99.90
19941;DHT22;10132;50.864;5.176;2022-09-12T01:10:31;13.70;99.90
19941;DHT22;10132;50.864;5.176;2022-09-12T01:12:37;13.70;99.90
19941;DHT22;10132;50.864;5.176;2022-09-12T01:14:40;13.50;99.90
19941;DHT22;10132;50.864;5.176;2022-09-12T01:16:44;13.40;99.90
19941;DHT22;10132;50.864;5.176;2022-09-12T01:18:58;13.40;99.90
19941;DHT22;10132;50.864;5.176;2022-09-12T01:21:13;13.30;99.90
19941;DHT22;10132;50.864;5.176;2022-09-12T01:26:08;13.10;99.90
19941;DHT22;10132;50.864;5.176;2022-09-12T01:28:34;13.00;99.90
19941;DHT22;10132;50.864;5.176;2022-09-12T01:30:46;13.10;99.90
19941;DHT22;10132;50.864;5.176;2022-09-12T01:33:04;13.10;99.90
19941;DHT22;10132;50.864;5.176;2022-09-12T01:35:17;13.40;99.90
19941;DHT22;10132;50.864;5.176;2022-09-12T01:37:26;13.70;99.90
19941;DHT22;10132;50.864;5.176;2022-09-12T01:39:39;13.70;99.90
19941;DHT22;10132;50.864;5.176;2022-09-12T01:41:51;13.70;99.90
19941;DHT22;10132;50.864;5.176;2022-09-12T01:44:01;13.80;99.90
19941;DHT22;10132;50.864;5.176;2022-09-12T01:46:09;13.70;99.90
19941;DHT22;10132;50.864;5.176;2022-09-12T01:48:16;13.70;99.90
19941;DHT22;10132;50.864;5.176;2022-09-12T01:50:23;13.70;99.90
19941;DHT22;10132;50.864;5.176;2022-09-12T01:52:30;13.70;99.90
19941;DHT22;10132;50.864;5.176;2022-09-12T01:54:37;13.80;99.90
19941;DHT22;10132;50.864;5.176;2022-09-12T01:56:42;13.80;99.90
19941;DHT22;10132;50.864;5.176;2022-09-12T01:58:48;13.80;99.90
19941;DHT22;10132;50.864;5.176;2022-09-12T02:00:54;13.50;99.90
19941;DHT22;10132;50.864;5.176;2022-09-12T02:03:03;13.50;99.90
19941;DHT22;10132;50.864;5.176;2022-09-12T02:05:09;13.60;99.90
19941;DHT22;10132;50.864;5.176;2022-09-12T02:07:14;13.60;99.90
19941;DHT22;10132;50.864;5.176;2022-09-12T02:09:21;13.60;99.90
19941;DHT22;10132;50.864;5.176;2022-09-12T02:11:24;13.70;99.90
19941;DHT22;10132;50.864;5.176;2022-09-12T02:13:31;13.60;99.90
19941;DHT22;10132;50.864;5.176;2022-09-12T02:15:39;13.60;99.90
19941;DHT22;10132;50.864;5.176;2022-09-12T02:17:43;13.50;99.90
19941;DHT22;10132;50.864;5.176;2022-09-12T02:19:51;13.30;99.90
19941;DHT22;10132;50.864;5.176;2022-09-12T02:21:56;13.30;99.90
19941;DHT22;10132;50.864;5.176;2022-09-12T02:24:01;13.40;99.90
19941;DHT22;10132;50.864;5.176;2022-09-12T02:26:09;13.40;99.90
19941;DHT22;10132;50.864;5.176;2022-09-12T02:28:13;13.40;99.90
19941;DHT22;10132;50.864;5.176;2022-09-12T02:30:17;13.30;99.90
19941;DHT22;10132;50.864;5.176;2022-09-12T02:32:26;13.20;99.90
19941;DHT22;10132;50.864;5.176;2022-09-12T02:34:38;13.10;99.90
19941;DHT22;10132;50.864;5.176;2022-09-12T02:36:50;13.10;99.90
19941;DHT22;10132;50.864;5.176;2022-09-12T02:38:54;13.00;99.90
19941;DHT22;10132;50.864;5.176;2022-09-12T02:40:56;12.90;99.90
19941;DHT22;10132;50.864;5.176;2022-09-12T02:42:59;12.90;99.90
19941;DHT22;10132;50.864;5.176;2022-09-12T02:45:02;12.90;99.90
19941;DHT22;10132;50.864;5.176;2022-09-12T02:47:09;12.80;99.90
19941;DHT22;10132;50.864;5.176;2022-09-12T02:49:12;12.70;99.90
19941;DHT22;10132;50.864;5.176;2022-09-12T02:51:14;12.70;99.90
19941;DHT22;10132;50.864;5.176;2022-09-12T02:53:18;12.70;99.90
19941;DHT22;10132;50.864;5.176;2022-09-12T02:55:20;12.90;99.90
19941;DHT22;10132;50.864;5.176;2022-09-12T02:57:24;12.90;99.90
19941;DHT22;10132;50.864;5.176;2022-09-12T02:59:26;13.00;99.90
19941;DHT22;10132;50.864;5.176;2022-09-12T03:01:39;13.00;99.90
19941;DHT22;10132;50.864;5.176;2022-09-12T03:03:59;13.10;99.90
19941;DHT22;10132;50.864;5.176;2022-09-12T03:06:10;13.10;99.90
19941;DHT22;10132;50.864;5.176;2022-09-12T03:08:39;12.90;99.90
19941;DHT22;10132;50.864;5.176;2022-09-12T03:11:04;12.60;99.90
19941;DHT22;10132;50.864;5.176;2022-09-12T03:13:18;12.40;99.90
19941;DHT22;10132;50.864;5.176;2022-09-12T03:15:31;12.60;99.90
19941;DHT22;10132;50.864;5.176;2022-09-12T03:17:45;12.60;99.90
19941;DHT22;10132;50.864;5.176;2022-09-12T03:19:56;12.60;99.90
19941;DHT22;10132;50.864;5.176;2022-09-12T03:22:04;12.60;99.90
19941;DHT22;10132;50.864;5.176;2022-09-12T03:24:11;12.60;99.90
19941;DHT22;10132;50.864;5.176;2022-09-12T03:26:19;12.40;99.90
19941;DHT22;10132;50.864;5.176;2022-09-12T03:28:22;12.40;99.90
19941;DHT22;10132;50.864;5.176;2022-09-12T03:30:24;12.40;99.90
19941;DHT22;10132;50.864;5.176;2022-09-12T03:32:40;12.40;99.90
19941;DHT22;10132;50.864;5.176;2022-09-12T03:34:42;12.50;99.90
19941;DHT22;10132;50.864;5.176;2022-09-12T03:36:44;12.60;99.90
19941;DHT22;10132;50.864;5.176;2022-09-12T03:38:46;12.70;99.90
19941;DHT22;10132;50.864;5.176;2022-09-12T03:40:50;12.80;99.90
19941;DHT22;10132;50.864;5.176;2022-09-12T03:42:52;12.70;99.90
19941;DHT22;10132;50.864;5.176;2022-09-12T03:44:54;12.60;99.90
19941;DHT22;10132;50.864;5.176;2022-09-12T03:46:56;12.50;99.90
19941;DHT22;10132;50.864;5.176;2022-09-12T03:48:58;12.70;99.90
19941;DHT22;10132;50.864;5.176;2022-09-12T03:51:00;12.80;99.90
19941;DHT22;10132;50.864;5.176;2022-09-12T03:53:02;12.70;99.90
19941;DHT22;10132;50.864;5.176;2022-09-12T03:55:05;12.50;99.90
19941;DHT22;10132;50.864;5.176;2022-09-12T03:57:09;12.40;99.90
19941;DHT22;10132;50.864;5.176;2022-09-12T03:59:10;12.50;99.90
19941;DHT22;10132;50.864;5.176;2022-09-12T04:01:14;12.50;99.90
19941;DHT22;10132;50.864;5.176;2022-09-12T04:03:16;12.70;99.90
19941;DHT22;10132;50.864;5.176;2022-09-12T04:05:19;12.70;99.90
19941;DHT22;10132;50.864;5.176;2022-09-12T04:07:21;12.80;99.90
19941;DHT22;10132;50.864;5.176;2022-09-12T04:09:23;12.80;99.90
19941;DHT22;10132;50.864;5.176;2022-09-12T04:11:25;12.80;99.90
19941;DHT22;10132;50.864;5.176;2022-09-12T04:13:28;12.60;99.90
19941;DHT22;10132;50.864;5.176;2022-09-12T04:15:30;12.70;99.90
19941;DHT22;10132;50.864;5.176;2022-09-12T04:17:33;12.70;99.90
19941;DHT22;10132;50.864;5.176;2022-09-12T04:19:35;12.70;99.90
19941;DHT22;10132;50.864;5.176;2022-09-12T04:21:37;12.70;99.90
19941;DHT22;10132;50.864;5.176;2022-09-12T04:23:39;12.80;99.90
19941;DHT22;10132;50.864;5.176;2022-09-12T04:25:41;12.80;99.90
19941;DHT22;10132;50.864;5.176;2022-09-12T04:27:43;12.80;99.90
19941;DHT22;10132;50.864;5.176;2022-09-12T04:29:46;12.90;99.90
19941;DHT22;10132;50.864;5.176;2022-09-12T04:31:48;12.80;99.90
19941;DHT22;10132;50.864;5.176;2022-09-12T04:33:52;12.60;99.90
19941;DHT22;10132;50.864;5.176;2022-09-12T04:35:55;12.50;99.90
19941;DHT22;10132;50.864;5.176;2022-09-12T04:37:57;12.50;99.90
19941;DHT22;10132;50.864;5.176;2022-09-12T04:39:58;12.60;99.90
19941;DHT22;10132;50.864;5.176;2022-09-12T04:42:00;12.60;99.90
19941;DHT22;10132;50.864;5.176;2022-09-12T04:44:06;12.60;99.90
19941;DHT22;10132;50.864;5.176;2022-09-12T04:46:11;12.60;99.90
19941;DHT22;10132;50.864;5.176;2022-09-12T04:48:14;12.60;99.90
19941;DHT22;10132;50.864;5.176;2022-09-12T04:50:16;12.60;99.90
19941;DHT22;10132;50.864;5.176;2022-09-12T04:52:18;12.60;99.90
19941;DHT22;10132;50.864;5.176;2022-09-12T04:54:20;12.60;99.90
19941;DHT22;10132;50.864;5.176;2022-09-12T04:56:23;12.70;99.90
19941;DHT22;10132;50.864;5.176;2022-09-12T04:58:25;12.70;99.90
19941;DHT22;10132;50.864;5.176;2022-09-12T05:00:27;12.70;99.90
19941;DHT22;10132;50.864;5.176;2022-09-12T05:02:32;12.70;99.90
19941;DHT22;10132;50.864;5.176;2022-09-12T05:04:34;12.70;99.90
19941;DHT22;10132;50.864;5.176;2022-09-12T05:06:36;12.70;99.90
19941;DHT22;10132;50.864;5.176;2022-09-12T05:08:38;12.70;99.90
19941;DHT22;10132;50.864;5.176;2022-09-12T05:10:40;12.60;99.90
19941;DHT22;10132;50.864;5.176;2022-09-12T05:12:42;12.60;99.90
19941;DHT22;10132;50.864;5.176;2022-09-12T05:14:44;12.50;99.90
19941;DHT22;10132;50.864;5.176;2022-09-12T05:16:46;12.50;99.90
19941;DHT22;10132;50.864;5.176;2022-09-12T05:18:50;12.60;99.90
19941;DHT22;10132;50.864;5.176;2022-09-12T05:20:52;12.60;99.90
19941;DHT22;10132;50.864;5.176;2022-09-12T05:22:54;12.60;99.90
19941;DHT22;10132;50.864;5.176;2022-09-12T05:24:56;12.60;99.90
19941;DHT22;10132;50.864;5.176;2022-09-12T05:26:58;12.70;99.90
19941;DHT22;10132;50.864;5.176;2022-09-12T05:29:00;12.70;99.90
19941;DHT22;10132;50.864;5.176;2022-09-12T05:31:06;12.70;99.90
19941;DHT22;10132;50.864;5.176;2022-09-12T05:33:08;12.80;99.90
19941;DHT22;10132;50.864;5.176;2022-09-12T05:35:12;13.00;99.90
19941;DHT22;10132;50.864;5.176;2022-09-12T05:37:14;13.20;99.90
19941;DHT22;10132;50.864;5.176;2022-09-12T05:39:16;13.30;99.90
19941;DHT22;10132;50.864;5.176;2022-09-12T05:41:20;13.30;99.90
19941;DHT22;10132;50.864;5.176;2022-09-12T05:43:22;13.30;99.90
19941;DHT22;10132;50.864;5.176;2022-09-12T05:45:24;13.20;99.90
19941;DHT22;10132;50.864;5.176;2022-09-12T05:47:26;13.20;99.90
19941;DHT22;10132;50.864;5.176;2022-09-12T05:49:28;13.30;99.90
19941;DHT22;10132;50.864;5.176;2022-09-12T05:51:33;13.30;99.90
19941;DHT22;10132;50.864;5.176;2022-09-12T05:53:37;13.30;99.90
19941;DHT22;10132;50.864;5.176;2022-09-12T05:55:39;13.30;99.90
19941;DHT22;10132;50.864;5.176;2022-09-12T05:57:42;13.30;99.90
19941;DHT22;10132;50.864;5.176;2022-09-12T05:59:45;13.30;99.90
19941;DHT22;10132;50.864;5.176;2022-09-12T06:01:48;13.50;99.90
19941;DHT22;10132;50.864;5.176;2022-09-12T06:03:51;13.60;99.90
19941;DHT22;10132;50.864;5.176;2022-09-12T06:05:54;13.60;99.90
19941;DHT22;10132;50.864;5.176;2022-09-12T06:07:57;13.70;99.90
19941;DHT22;10132;50.864;5.176;2022-09-12T06:09:59;13.70;99.90
19941;DHT22;10132;50.864;5.176;2022-09-12T06:12:01;13.80;99.90
19941;DHT22;10132;50.864;5.176;2022-09-12T06:14:03;13.80;99.90
19941;DHT22;10132;50.864;5.176;2022-09-12T06:16:07;13.80;99.90
19941;DHT22;10132;50.864;5.176;2022-09-12T06:18:09;13.80;99.90
19941;DHT22;10132;50.864;5.176;2022-09-12T06:20:11;13.90;99.90
19941;DHT22;10132;50.864;5.176;2022-09-12T06:22:13;13.90;99.90
19941;DHT22;10132;50.864;5.176;2022-09-12T06:24:17;14.00;99.90
19941;DHT22;10132;50.864;5.176;2022-09-12T06:26:19;14.00;99.90
19941;DHT22;10132;50.864;5.176;2022-09-12T06:28:23;14.00;99.90
19941;DHT22;10132;50.864;5.176;2022-09-12T06:30:25;14.00;99.90
19941;DHT22;10132;50.864;5.176;2022-09-12T06:32:29;14.10;99.90
19941;DHT22;10132;50.864;5.176;2022-09-12T06:34:31;14.10;99.90
19941;DHT22;10132;50.864;5.176;2022-09-12T06:36:35;14.20;99.90
19941;DHT22;10132;50.864;5.176;2022-09-12T06:38:38;14.20;99.90
19941;DHT22;10132;50.864;5.176;2022-09-12T06:40:42;14.20;99.90
19941;DHT22;10132;50.864;5.176;2022-09-12T06:42:44;14.20;99.90
19941;DHT22;10132;50.864;5.176;2022-09-12T06:44:46;14.30;99.90
19941;DHT22;10132;50.864;5.176;2022-09-12T06:46:50;14.30;99.90
19941;DHT22;10132;50.864;5.176;2022-09-12T06:48:54;14.30;99.90
19941;DHT22;10132;50.864;5.176;2022-09-12T06:50:57;14.20;99.90
19941;DHT22;10132;50.864;5.176;2022-09-12T06:52:59;14.10;99.90
19941;DHT22;10132;50.864;5.176;2022-09-12T06:55:02;14.30;99.90
19941;DHT22;10132;50.864;5.176;2022-09-12T06:57:06;14.50;99.90
19941;DHT22;10132;50.864;5.176;2022-09-12T06:59:08;14.70;99.90
19941;DHT22;10132;50.864;5.176;2022-09-12T07:01:12;15.00;99.90
19941;DHT22;10132;50.864;5.176;2022-09-12T07:03:14;15.20;99.90
19941;DHT22;10132;50.864;5.176;2022-09-12T07:05:16;15.20;99.90
19941;DHT22;10132;50.864;5.176;2022-09-12T07:07:18;15.20;99.90
19941;DHT22;10132;50.864;5.176;2022-09-12T07:09:20;15.10;99.90
19941;DHT22;10132;50.864;5.176;2022-09-12T07:11:24;15.10;99.90
19941;DHT22;10132;50.864;5.176;2022-09-12T07:13:27;15.40;99.90
19941;DHT22;10132;50.864;5.176;2022-09-12T07:15:29;15.70;99.90
19941;DHT22;10132;50.864;5.176;2022-09-12T07:17:31;16.10;99.90
19941;DHT22;10132;50.864;5.176;2022-09-12T07:19:33;16.30;99.90
19941;DHT22;10132;50.864;5.176;2022-09-12T07:21:35;16.30;99.90
19941;DHT22;10132;50.864;5.176;2022-09-12T07:23:39;16.40;99.90
19941;DHT22;10132;50.864;5.176;2022-09-12T07:25:41;16.50;99.90
19941;DHT22;10132;50.864;5.176;2022-09-12T07:27:43;16.60;99.90
19941;DHT22;10132;50.864;5.176;2022-09-12T07:29:46;16.90;99.90
19941;DHT22;10132;50.864;5.176;2022-09-12T07:31:48;16.90;99.90
19941;DHT22;10132;50.864;5.176;2022-09-12T07:33:50;17.30;99.90
19941;DHT22;10132;50.864;5.176;2022-09-12T07:35:53;17.60;99.90
19941;DHT22;10132;50.864;5.176;2022-09-12T07:37:55;17.70;99.90
19941;DHT22;10132;50.864;5.176;2022-09-12T07:39:57;17.80;99.90
19941;DHT22;10132;50.864;5.176;2022-09-12T07:41:59;18.10;99.90
19941;DHT22;10132;50.864;5.176;2022-09-12T07:44:01;18.20;99.90
19941;DHT22;10132;50.864;5.176;2022-09-12T07:46:08;18.40;99.90
19941;DHT22;10132;50.864;5.176;2022-09-12T07:48:10;18.50;99.90
19941;DHT22;10132;50.864;5.176;2022-09-12T07:50:11;18.70;99.90
19941;DHT22;10132;50.864;5.176;2022-09-12T07:52:13;19.10;99.90
19941;DHT22;10132;50.864;5.176;2022-09-12T07:54:15;18.90;99.90
19941;DHT22;10132;50.864;5.176;2022-09-12T07:56:18;19.00;99.90
19941;DHT22;10132;50.864;5.176;2022-09-12T07:58:21;19.10;99.90
19941;DHT22;10132;50.864;5.176;2022-09-12T08:00:23;19.20;99.90
19941;DHT22;10132;50.864;5.176;2022-09-12T08:02:27;19.40;99.90
19941;DHT22;10132;50.864;5.176;2022-09-12T08:10:23;20.00;99.90
19941;DHT22;10132;50.864;5.176;2022-09-12T08:12:27;20.20;99.90
19941;DHT22;10132;50.864;5.176;2022-09-12T08:14:29;20.40;99.90
19941;DHT22;10132;50.864;5.176;2022-09-12T08:16:31;20.40;99.90
19941;DHT22;10132;50.864;5.176;2022-09-12T08:18:35;20.50;99.90
19941;DHT22;10132;50.864;5.176;2022-09-12T08:20:37;20.70;99.90
19941;DHT22;10132;50.864;5.176;2022-09-12T08:22:39;20.90;99.90
19941;DHT22;10132;50.864;5.176;2022-09-12T08:24:41;21.00;99.90
19941;DHT22;10132;50.864;5.176;2022-09-12T08:26:43;20.80;99.90
19941;DHT22;10132;50.864;5.176;2022-09-12T08:28:45;20.70;99.90
19941;DHT22;10132;50.864;5.176;2022-09-12T08:30:47;20.60;99.90
19941;DHT22;10132;50.864;5.176;2022-09-12T08:32:49;21.00;99.90
19941;DHT22;10132;50.864;5.176;2022-09-12T08:34:52;21.20;99.90
19941;DHT22;10132;50.864;5.176;2022-09-12T08:36:55;21.40;99.90
19941;DHT22;10132;50.864;5.176;2022-09-12T08:38:58;21.80;99.90
19941;DHT22;10132;50.864;5.176;2022-09-12T08:41:05;22.00;99.90
19941;DHT22;10132;50.864;5.176;2022-09-12T08:43:16;22.00;99.90
19941;DHT22;10132;50.864;5.176;2022-09-12T08:45:27;21.80;99.90
19941;DHT22;10132;50.864;5.176;2022-09-12T08:47:35;21.70;99.90
19941;DHT22;10132;50.864;5.176;2022-09-12T08:49:44;21.90;99.90
19941;DHT22;10132;50.864;5.176;2022-09-12T08:51:50;22.00;99.90
19941;DHT22;10132;50.864;5.176;2022-09-12T08:53:53;22.20;99.90
19941;DHT22;10132;50.864;5.176;2022-09-12T08:55:58;22.20;99.90
19941;DHT22;10132;50.864;5.176;2022-09-12T08:58:03;22.20;99.90
19941;DHT22;10132;50.864;5.176;2022-09-12T09:00:12;22.10;99.90
19941;DHT22;10132;50.864;5.176;2022-09-12T09:04:56;22.20;99.90
19941;DHT22;10132;50.864;5.176;2022-09-12T09:07:17;22.10;99.90
19941;DHT22;10132;50.864;5.176;2022-09-12T09:09:29;22.00;99.90
19941;DHT22;10132;50.864;5.176;2022-09-12T09:11:45;22.00;99.90
19941;DHT22;10132;50.864;5.176;2022-09-12T09:13:59;22.00;99.90
19941;DHT22;10132;50.864;5.176;2022-09-12T09:16:37;22.30;99.90
19941;DHT22;10132;50.864;5.176;2022-09-12T09:18:42;22.10;99.90
19941;DHT22;10132;50.864;5.176;2022-09-12T09:20:50;21.90;99.90
19941;DHT22;10132;50.864;5.176;2022-09-12T09:22:57;21.90;99.90
19941;DHT22;10132;50.864;5.176;2022-09-12T09:25:04;22.00;99.90
19941;DHT22;10132;50.864;5.176;2022-09-12T09:27:11;22.50;99.90
19941;DHT22;10132;50.864;5.176;2022-09-12T09:29:17;22.50;99.90
19941;DHT22;10132;50.864;5.176;2022-09-12T09:31:21;22.00;99.90
19941;DHT22;10132;50.864;5.176;2022-09-12T09:33:27;21.90;99.90
19941;DHT22;10132;50.864;5.176;2022-09-12T09:35:39;22.00;99.90
19941;DHT22;10132;50.864;5.176;2022-09-12T09:37:57;22.20;99.90
19941;DHT22;10132;50.864;5.176;2022-09-12T09:40:05;22.60;99.90
19941;DHT22;10132;50.864;5.176;2022-09-12T09:42:20;22.50;99.90
19941;DHT22;10132;50.864;5.176;2022-09-12T09:44:27;22.80;99.90
19941;DHT22;10132;50.864;5.176;2022-09-12T09:46:29;22.80;99.90
19941;DHT22;10132;50.864;5.176;2022-09-12T09:48:35;22.50;99.90
19941;DHT22;10132;50.864;5.176;2022-09-12T09:50:38;22.60;99.90
19941;DHT22;10132;50.864;5.176;2022-09-12T09:52:40;22.40;99.90
19941;DHT22;10132;50.864;5.176;2022-09-12T09:54:48;22.60;99.90
19941;DHT22;10132;50.864;5.176;2022-09-12T09:56:52;22.90;99.90
19941;DHT22;10132;50.864;5.176;2022-09-12T09:58:54;23.00;99.90
19941;DHT22;10132;50.864;5.176;2022-09-12T10:01:00;23.00;99.90
19941;DHT22;10132;50.864;5.176;2022-09-12T10:03:29;23.50;99.90
19941;DHT22;10132;50.864;5.176;2022-09-12T10:05:33;23.70;99.90
19941;DHT22;10132;50.864;5.176;2022-09-12T10:07:37;23.70;99.90
19941;DHT22;10132;50.864;5.176;2022-09-12T10:10:12;23.80;99.90
19941;DHT22;10132;50.864;5.176;2022-09-12T10:12:23;24.00;99.90
19941;DHT22;10132;50.864;5.176;2022-09-12T10:14:31;24.10;99.90
19941;DHT22;10132;50.864;5.176;2022-09-12T10:16:48;24.40;99.90
19941;DHT22;10132;50.864;5.176;2022-09-12T10:18:53;24.60;99.90
19941;DHT22;10132;50.864;5.176;2022-09-12T10:20:55;24.90;99.90
19941;DHT22;10132;50.864;5.176;2022-09-12T10:22:58;25.00;99.90
19941;DHT22;10132;50.864;5.176;2022-09-12T10:25:03;24.70;99.90
19941;DHT22;10132;50.864;5.176;2022-09-12T10:27:14;24.40;99.90
19941;DHT22;10132;50.864;5.176;2022-09-12T10:29:21;23.80;99.90
19941;DHT22;10132;50.864;5.176;2022-09-12T10:31:26;23.80;99.90
19941;DHT22;10132;50.864;5.176;2022-09-12T10:33:30;23.80;99.90
19941;DHT22;10132;50.864;5.176;2022-09-12T10:35:43;24.00;99.90
19941;DHT22;10132;50.864;5.176;2022-09-12T10:37:53;23.60;99.90
19941;DHT22;10132;50.864;5.176;2022-09-12T10:39:57;23.90;99.90
19941;DHT22;10132;50.864;5.176;2022-09-12T10:42:01;23.90;99.90
19941;DHT22;10132;50.864;5.176;2022-09-12T10:44:11;24.30;99.90
19941;DHT22;10132;50.864;5.176;2022-09-12T10:46:26;24.20;99.90
19941;DHT22;10132;50.864;5.176;2022-09-12T10:48:30;24.20;99.90
19941;DHT22;10132;50.864;5.176;2022-09-12T10:50:38;24.20;99.90
19941;DHT22;10132;50.864;5.176;2022-09-12T10:52:40;24.50;99.90
19941;DHT22;10132;50.864;5.176;2022-09-12T10:54:42;24.70;99.90
19941;DHT22;10132;50.864;5.176;2022-09-12T10:57:14;24.90;99.90
19941;DHT22;10132;50.864;5.176;2022-09-12T10:59:29;25.10;99.90
19941;DHT22;10132;50.864;5.176;2022-09-12T11:01:38;24.20;99.90
19941;DHT22;10132;50.864;5.176;2022-09-12T11:03:53;24.40;99.90
19941;DHT22;10132;50.864;5.176;2022-09-12T11:06:01;24.80;99.90
19941;DHT22;10132;50.864;5.176;2022-09-12T11:08:11;24.90;99.90
19941;DHT22;10132;50.864;5.176;2022-09-12T11:10:23;25.00;99.90
19941;DHT22;10132;50.864;5.176;2022-09-12T11:12:35;25.30;99.90
19941;DHT22;10132;50.864;5.176;2022-09-12T11:14:54;25.40;99.90
19941;DHT22;10132;50.864;5.176;2022-09-12T11:17:02;25.10;99.90
19941;DHT22;10132;50.864;5.176;2022-09-12T11:19:20;25.30;99.90
19941;DHT22;10132;50.864;5.176;2022-09-12T11:21:42;25.70;99.90
19941;DHT22;10132;50.864;5.176;2022-09-12T11:26:33;25.60;99.90
19941;DHT22;10132;50.864;5.176;2022-09-12T11:28:51;25.20;99.90
19941;DHT22;10132;50.864;5.176;2022-09-12T11:31:11;24.60;99.90
19941;DHT22;10132;50.864;5.176;2022-09-12T11:33:28;24.50;99.90
19941;DHT22;10132;50.864;5.176;2022-09-12T11:35:42;24.80;99.90
19941;DHT22;10132;50.864;5.176;2022-09-12T11:37:58;24.50;99.90
19941;DHT22;10132;50.864;5.176;2022-09-12T11:40:22;25.00;99.90
19941;DHT22;10132;50.864;5.176;2022-09-12T11:42:28;25.30;99.90
19941;DHT22;10132;50.864;5.176;2022-09-12T11:44:36;25.70;99.90
19941;DHT22;10132;50.864;5.176;2022-09-12T11:46:41;25.50;99.90
19941;DHT22;10132;50.864;5.176;2022-09-12T11:48:52;25.40;99.90
19941;DHT22;10132;50.864;5.176;2022-09-12T11:50:56;25.30;99.90
19941;DHT22;10132;50.864;5.176;2022-09-12T11:53:04;25.50;99.90
19941;DHT22;10132;50.864;5.176;2022-09-12T11:55:15;25.90;99.90
19941;DHT22;10132;50.864;5.176;2022-09-12T11:57:24;26.60;99.90
19941;DHT22;10132;50.864;5.176;2022-09-12T11:59:34;27.20;99.90
19941;DHT22;10132;50.864;5.176;2022-09-12T12:01:40;27.60;99.90
19941;DHT22;10132;50.864;5.176;2022-09-12T12:03:45;27.70;99.90
19941;DHT22;10132;50.864;5.176;2022-09-12T12:05:51;26.90;99.90
19941;DHT22;10132;50.864;5.176;2022-09-12T12:07:55;26.00;99.90
19941;DHT22;10132;50.864;5.176;2022-09-12T12:09:57;25.70;99.90
19941;DHT22;10132;50.864;5.176;2022-09-12T12:12:02;25.60;99.90
19941;DHT22;10132;50.864;5.176;2022-09-12T12:14:13;25.80;99.90
19941;DHT22;10132;50.864;5.176;2022-09-12T12:16:20;26.30;99.90
19941;DHT22;10132;50.864;5.176;2022-09-12T12:18:24;26.60;99.90
19941;DHT22;10132;50.864;5.176;2022-09-12T12:20:27;26.90;99.90
19941;DHT22;10132;50.864;5.176;2022-09-12T12:22:30;26.60;99.90
19941;DHT22;10132;50.864;5.176;2022-09-12T12:24:32;26.50;99.90
19941;DHT22;10132;50.864;5.176;2022-09-12T12:26:59;26.10;99.90
19941;DHT22;10132;50.864;5.176;2022-09-12T12:29:02;26.30;99.90
19941;DHT22;10132;50.864;5.176;2022-09-12T12:31:04;26.60;99.90
19941;DHT22;10132;50.864;5.176;2022-09-12T12:36:02;27.40;99.90
19941;DHT22;10132;50.864;5.176;2022-09-12T12:38:25;26.80;99.90
19941;DHT22;10132;50.864;5.176;2022-09-12T12:40:29;27.00;99.90
19941;DHT22;10132;50.864;5.176;2022-09-12T12:45:47;27.30;99.90
19941;DHT22;10132;50.864;5.176;2022-09-12T12:47:52;27.20;99.90
19941;DHT22;10132;50.864;5.176;2022-09-12T12:49:59;26.90;99.90
19941;DHT22;10132;50.864;5.176;2022-09-12T12:52:02;26.80;99.90
19941;DHT22;10132;50.864;5.176;2022-09-12T12:54:25;26.70;99.90
19941;DHT22;10132;50.864;5.176;2022-09-12T12:56:33;26.50;99.90
19941;DHT22;10132;50.864;5.176;2022-09-12T12:58:37;27.20;99.90
19941;DHT22;10132;50.864;5.176;2022-09-12T13:00:40;27.40;99.90
19941;DHT22;10132;50.864;5.176;2022-09-12T13:02:49;27.40;99.90
19941;DHT22;10132;50.864;5.176;2022-09-12T13:04:53;27.10;99.90
19941;DHT22;10132;50.864;5.176;2022-09-12T13:07:00;27.10;99.90
19941;DHT22;10132;50.864;5.176;2022-09-12T13:09:06;27.40;99.90
19941;DHT22;10132;50.864;5.176;2022-09-12T13:11:13;27.90;99.90
19941;DHT22;10132;50.864;5.176;2022-09-12T13:13:23;27.40;99.90
19941;DHT22;10132;50.864;5.176;2022-09-12T13:15:50;27.60;99.90
19941;DHT22;10132;50.864;5.176;2022-09-12T13:17:53;27.80;99.90
19941;DHT22;10132;50.864;5.176;2022-09-12T13:20:15;28.00;99.90
19941;DHT22;10132;50.864;5.176;2022-09-12T13:22:21;28.10;99.90
19941;DHT22;10132;50.864;5.176;2022-09-12T13:24:24;28.10;99.90
19941;DHT22;10132;50.864;5.176;2022-09-12T13:26:27;28.50;99.90
19941;DHT22;10132;50.864;5.176;2022-09-12T13:28:30;28.60;99.90
19941;DHT22;10132;50.864;5.176;2022-09-12T13:30:33;28.50;99.90
19941;DHT22;10132;50.864;5.176;2022-09-12T13:32:35;27.80;99.90
19941;DHT22;10132;50.864;5.176;2022-09-12T13:34:54;27.90;99.90